createdAt,value
2023-02-28T00:04:58.990Z,1023.1
2023-02-28T00:11:22.064Z,1023.12
2023-02-28T00:17:42.009Z,1023.1
2023-02-28T00:24:05.002Z,1023.1
2023-02-28T00:30:25.076Z,1023.14
2023-02-28T00:36:48.065Z,1023.16
2023-02-28T00:43:08.012Z,1023.2
2023-02-28T00:49:30.971Z,1023.23
2023-02-28T00:55:51.070Z,1023.18
2023-02-28T01:02:14.003Z,1023.23
2023-02-28T01:08:33.999Z,1023.22
2023-02-28T01:14:57.033Z,1023.23
2023-02-28T01:21:17.026Z,1023.23
2023-02-28T01:27:40.056Z,1023.25
2023-02-28T01:34:00.033Z,1023.23
2023-02-28T01:40:23.274Z,1023.18
2023-02-28T01:46:43.110Z,1023.2
2023-02-28T01:53:06.015Z,1023.12
2023-02-28T01:59:26.026Z,1023.06
2023-02-28T02:05:49.074Z,1022.98
2023-02-28T02:12:09.007Z,1022.96
2023-02-28T02:18:32.013Z,1022.86
2023-02-28T02:24:51.976Z,1022.86
2023-02-28T02:31:15.138Z,1022.86
2023-02-28T02:37:35.057Z,1022.86
2023-02-28T02:43:57.978Z,1022.84
2023-02-28T02:50:18.014Z,1022.82
2023-02-28T02:56:41.024Z,1022.86
2023-02-28T03:03:01.040Z,1022.9
2023-02-28T03:09:24.007Z,1022.88
2023-02-28T03:15:44.032Z,1022.86
2023-02-28T03:22:06.993Z,1022.82
2023-02-28T03:28:27.016Z,1022.84
2023-02-28T03:34:50.047Z,1022.8
2023-02-28T03:41:10.070Z,1022.77
2023-02-28T03:47:33.028Z,1022.8
2023-02-28T03:53:53.064Z,1022.8
2023-02-28T04:00:16.010Z,1022.79
2023-02-28T04:23:22.047Z,1022.88
2023-02-28T04:29:42.079Z,1022.92
2023-02-28T04:36:05.129Z,1022.94
2023-02-28T04:42:25.079Z,1022.94
2023-02-28T04:48:47.992Z,1022.96
2023-02-28T04:55:08.038Z,1022.98
2023-02-28T05:01:31.359Z,1022.98
2023-02-28T05:07:51.070Z,1023.02
2023-02-28T05:14:14.000Z,1023.08
2023-02-28T05:20:33.993Z,1023.08
2023-02-28T05:26:56.985Z,1023.14
2023-02-28T05:33:16.991Z,1023.14
2023-02-28T05:39:40.052Z,1023.14
2023-02-28T05:46:00.099Z,1023.14
2023-02-28T05:52:22.977Z,1023.18
2023-02-28T05:58:43.019Z,1023.18
2023-02-28T06:05:05.977Z,1023.18
2023-02-28T06:11:25.984Z,1023.18
2023-02-28T06:17:49.084Z,1023.2
2023-02-28T06:24:09.079Z,1023.23
2023-02-28T06:30:31.996Z,1023.27
2023-02-28T06:36:52.019Z,1023.31
2023-02-28T06:43:15.017Z,1023.37
2023-02-28T06:49:35.054Z,1023.52
2023-02-28T06:55:58.016Z,1023.58
2023-02-28T07:02:18.104Z,1023.66
2023-02-28T07:08:40.979Z,1023.72
2023-02-28T07:15:01.121Z,1023.75
2023-02-28T07:21:24.038Z,1023.81
2023-02-28T07:27:44.041Z,1023.83
2023-02-28T07:34:07.013Z,1023.83
2023-02-28T07:40:27.027Z,1023.83
2023-02-28T07:46:50.080Z,1023.81
2023-02-28T07:53:10.005Z,1023.83
2023-02-28T07:59:33.104Z,1023.87
2023-02-28T08:05:52.995Z,1023.87
2023-02-28T08:12:16.015Z,1023.89
2023-02-28T08:18:36.144Z,1023.93
2023-02-28T08:24:58.992Z,1023.91
2023-02-28T08:31:19.182Z,1023.87
2023-02-28T08:37:42.084Z,1023.89
2023-02-28T08:44:02.043Z,1023.89
2023-02-28T08:50:25.146Z,1023.83
2023-02-28T08:56:45.055Z,1023.87
2023-02-28T09:03:07.990Z,1023.81
2023-02-28T09:26:14.515Z,1023.79
2023-02-28T09:32:35.007Z,1023.75
2023-02-28T09:38:58.042Z,1023.72
2023-02-28T09:45:18.027Z,1023.66
2023-02-28T09:51:41.053Z,1023.66
2023-02-28T09:58:01.031Z,1023.6
2023-02-28T10:04:24.066Z,1023.58
2023-02-28T10:10:44.008Z,1023.52
2023-02-28T10:17:07.023Z,1023.5
2023-02-28T10:23:27.038Z,1023.37
2023-02-28T10:29:50.015Z,1023.33
2023-02-28T10:36:10.023Z,1023.31
2023-02-28T10:42:33.038Z,1023.27
2023-02-28T10:48:52.975Z,1023.22
2023-02-28T10:55:15.988Z,1023.18
2023-02-28T11:01:36.095Z,1023.12
2023-02-28T11:07:59.026Z,1023.1
2023-02-28T11:14:19.012Z,1023.1
2023-02-28T11:20:42.023Z,1023.04
2023-02-28T11:27:02.033Z,1023
2023-02-28T11:33:25.004Z,1023.02
2023-02-28T11:39:45.023Z,1022.98
2023-02-28T11:46:08.024Z,1022.94
2023-02-28T11:52:28.004Z,1022.94
2023-02-28T11:58:51.019Z,1022.94
2023-02-28T12:05:10.986Z,1022.94
2023-02-28T12:11:34.010Z,1022.9
2023-02-28T12:17:54.012Z,1022.86
2023-02-28T12:24:17.003Z,1022.84
2023-02-28T12:30:37.017Z,1022.79
2023-02-28T12:37:00.039Z,1022.73
2023-02-28T12:43:20.048Z,1022.67
2023-02-28T12:49:43.115Z,1022.63
2023-02-28T12:56:03.016Z,1022.61
2023-02-28T13:02:26.076Z,1022.53
2023-02-28T13:08:45.989Z,1022.45
2023-02-28T13:15:09.021Z,1022.35
2023-02-28T13:21:29.295Z,1022.32
2023-02-28T13:27:52.017Z,1022.26
2023-02-28T13:34:12.010Z,1022.24
2023-02-28T13:40:35.011Z,1022.2
2023-02-28T13:46:55.024Z,1022.14
2023-02-28T13:53:18.025Z,1022.14
2023-02-28T13:59:38.260Z,1022.12
2023-02-28T14:06:00.998Z,1022.08
2023-02-28T14:12:21.140Z,1022.04
2023-02-28T14:18:43.991Z,1021.98
2023-02-28T14:36:14.999Z,1021.85
2023-02-28T14:42:38.014Z,1021.73
2023-02-28T14:48:58.020Z,1021.73
2023-02-28T14:55:21.033Z,1021.75
2023-02-28T15:01:41.004Z,1021.73
2023-02-28T15:08:03.982Z,1021.73
2023-02-28T15:14:24.055Z,1021.67
2023-02-28T15:20:47.012Z,1021.63
2023-02-28T15:27:07.008Z,1021.59
2023-02-28T15:33:30.023Z,1021.59
2023-02-28T15:39:49.979Z,1021.61
2023-02-28T15:46:13.135Z,1021.57
2023-02-28T15:52:33.024Z,1021.59
2023-02-28T15:58:55.995Z,1021.59
2023-02-28T16:05:16.013Z,1021.57
2023-02-28T16:11:39.034Z,1021.57
2023-02-28T16:17:59.014Z,1021.61
2023-02-28T16:24:22.016Z,1021.63
2023-02-28T16:30:42.144Z,1021.67
2023-02-28T16:37:05.007Z,1021.67
2023-02-28T16:43:25.061Z,1021.71
2023-02-28T16:49:48.084Z,1021.79
2023-02-28T16:56:07.978Z,1021.85
2023-02-28T17:02:31.211Z,1021.98
2023-02-28T17:08:51.125Z,1022.02
2023-02-28T17:15:14.020Z,1022.12
2023-02-28T17:21:34.010Z,1022.14
2023-02-28T17:27:57.027Z,1022.22
2023-02-28T17:34:17.004Z,1022.3
2023-02-28T17:40:40.097Z,1022.39
2023-02-28T17:47:00.275Z,1022.45
2023-02-28T17:53:23.019Z,1022.47
2023-02-28T17:59:43.014Z,1022.51
2023-02-28T18:06:06.061Z,1022.51
2023-02-28T18:12:25.980Z,1022.53
2023-02-28T18:18:49.248Z,1022.57
2023-02-28T18:25:09.029Z,1022.55
2023-02-28T18:31:32.030Z,1022.59
2023-02-28T18:37:52.064Z,1022.59
2023-02-28T18:44:20.091Z,1022.61
2023-02-28T18:50:35.063Z,1022.67
2023-02-28T18:56:58.097Z,1022.69
2023-02-28T19:03:18.011Z,1022.75
2023-02-28T19:09:41.321Z,1022.8
2023-02-28T19:32:28.692Z,1022.98
2023-02-28T19:38:48.020Z,1023.02
2023-02-28T19:45:11.039Z,1023.04
2023-02-28T19:51:30.992Z,1022.98
2023-02-28T19:57:54.004Z,1023.02
2023-02-28T20:04:14.084Z,1023.04
2023-02-28T20:10:37.041Z,1023.08
2023-02-28T20:16:58.233Z,1023.08
2023-02-28T20:23:20.012Z,1023.06
2023-02-28T20:29:40.006Z,1023.08
2023-02-28T20:36:03.053Z,1023.02
2023-02-28T20:42:23.020Z,1023
2023-02-28T20:48:46.009Z,1022.98
2023-02-28T20:55:06.065Z,1022.98
2023-02-28T21:01:29.043Z,1022.96
2023-02-28T21:07:49.049Z,1023
2023-02-28T21:14:11.981Z,1023.04
2023-02-28T21:20:32.000Z,1023.06
2023-02-28T21:26:55.023Z,1023.1
2023-02-28T21:33:15.091Z,1023.14
2023-02-28T21:39:37.976Z,1023.2
2023-02-28T21:45:58.062Z,1023.2
2023-02-28T21:52:20.992Z,1023.2
2023-02-28T21:58:41.049Z,1023.23
2023-02-28T22:05:04.035Z,1023.27
2023-02-28T22:11:24.006Z,1023.27
2023-02-28T22:17:46.975Z,1023.31
2023-02-28T22:24:07.173Z,1023.35
2023-02-28T22:30:29.993Z,1023.35
2023-02-28T22:36:50.097Z,1023.37
2023-02-28T22:43:13.093Z,1023.33
2023-02-28T22:49:32.974Z,1023.25
2023-02-28T22:55:56.055Z,1023.25
2023-02-28T23:20:10.007Z,1023.22
2023-02-28T23:26:30.283Z,1023.2
2023-02-28T23:32:53.015Z,1023.23
2023-02-28T23:39:13.014Z,1023.27
2023-02-28T23:45:37.011Z,1023.27
2023-02-28T23:51:56.989Z,1023.25
2023-02-28T23:58:19.998Z,1023.23
